sensor_id;sensor_type;location;lat;lon;timestamp;P1;durP1;ratioP1;P2;durP2;ratioP2
76610;SDS011;65503;48.534;9.062;2024-01-06T00:02:13;14.98;;;8.50;;
76610;SDS011;65503;48.534;9.062;2024-01-06T00:04:39;20.77;;;11.13;;
76610;SDS011;65503;48.534;9.062;2024-01-06T00:07:06;17.67;;;9.45;;
76610;SDS011;65503;48.534;9.062;2024-01-06T00:09:32;18.10;;;10.40;;
76610;SDS011;65503;48.534;9.062;2024-01-06T00:11:59;17.02;;;10.15;;
76610;SDS011;65503;48.534;9.062;2024-01-06T00:14:25;19.30;;;9.75;;
76610;SDS011;65503;48.534;9.062;2024-01-06T00:16:52;19.08;;;10.73;;
76610;SDS011;65503;48.534;9.062;2024-01-06T00:19:19;20.48;;;11.35;;
76610;SDS011;65503;48.534;9.062;2024-01-06T00:21:45;22.65;;;11.60;;
76610;SDS011;65503;48.534;9.062;2024-01-06T00:24:12;21.50;;;11.20;;
76610;SDS011;65503;48.534;9.062;2024-01-06T00:26:38;21.30;;;10.73;;
76610;SDS011;65503;48.534;9.062;2024-01-06T00:29:05;19.80;;;11.13;;
76610;SDS011;65503;48.534;9.062;2024-01-06T00:31:32;23.48;;;12.02;;
76610;SDS011;65503;48.534;9.062;2024-01-06T00:33:58;25.67;;;12.68;;
76610;SDS011;65503;48.534;9.062;2024-01-06T00:36:25;22.83;;;11.45;;
76610;SDS011;65503;48.534;9.062;2024-01-06T00:38:52;19.02;;;11.65;;
76610;SDS011;65503;48.534;9.062;2024-01-06T00:41:18;28.05;;;14.02;;
76610;SDS011;65503;48.534;9.062;2024-01-06T00:43:45;24.77;;;13.52;;
76610;SDS011;65503;48.534;9.062;2024-01-06T00:46:11;22.95;;;13.68;;
76610;SDS011;65503;48.534;9.062;2024-01-06T00:48:38;25.27;;;13.23;;
76610;SDS011;65503;48.534;9.062;2024-01-06T00:51:05;20.83;;;11.88;;
76610;SDS011;65503;48.534;9.062;2024-01-06T00:53:32;19.70;;;10.18;;
76610;SDS011;65503;48.534;9.062;2024-01-06T00:55:59;19.35;;;10.75;;
76610;SDS011;65503;48.534;9.062;2024-01-06T00:58:25;22.83;;;10.90;;
76610;SDS011;65503;48.534;9.062;2024-01-06T01:00:52;15.95;;;9.45;;
76610;SDS011;65503;48.534;9.062;2024-01-06T01:03:18;17.25;;;10.32;;
76610;SDS011;65503;48.534;9.062;2024-01-06T01:05:45;18.90;;;9.05;;
76610;SDS011;65503;48.534;9.062;2024-01-06T01:08:11;19.02;;;9.02;;
76610;SDS011;65503;48.534;9.062;2024-01-06T01:10:38;15.63;;;9.52;;
76610;SDS011;65503;48.534;9.062;2024-01-06T01:13:05;14.80;;;7.93;;
76610;SDS011;65503;48.534;9.062;2024-01-06T01:15:31;13.95;;;7.65;;
76610;SDS011;65503;48.534;9.062;2024-01-06T01:17:58;11.25;;;6.38;;
76610;SDS011;65503;48.534;9.062;2024-01-06T01:20:25;11.27;;;6.03;;
76610;SDS011;65503;48.534;9.062;2024-01-06T01:22:51;14.45;;;5.88;;
76610;SDS011;65503;48.534;9.062;2024-01-06T01:25:18;14.38;;;5.43;;
76610;SDS011;65503;48.534;9.062;2024-01-06T01:27:44;9.23;;;4.65;;
76610;SDS011;65503;48.534;9.062;2024-01-06T01:30:11;11.82;;;5.00;;
76610;SDS011;65503;48.534;9.062;2024-01-06T01:32:38;8.95;;;4.05;;
76610;SDS011;65503;48.534;9.062;2024-01-06T01:35:05;8.05;;;4.00;;
76610;SDS011;65503;48.534;9.062;2024-01-06T01:37:32;8.10;;;3.83;;
76610;SDS011;65503;48.534;9.062;2024-01-06T01:39:58;8.30;;;3.38;;
76610;SDS011;65503;48.534;9.062;2024-01-06T01:42:25;9.85;;;4.78;;
76610;SDS011;65503;48.534;9.062;2024-01-06T01:44:51;11.68;;;6.20;;
76610;SDS011;65503;48.534;9.062;2024-01-06T01:47:18;10.85;;;6.25;;
76610;SDS011;65503;48.534;9.062;2024-01-06T01:49:46;11.05;;;5.85;;
76610;SDS011;65503;48.534;9.062;2024-01-06T01:52:14;11.57;;;5.75;;
76610;SDS011;65503;48.534;9.062;2024-01-06T01:54:42;12.27;;;6.43;;
76610;SDS011;65503;48.534;9.062;2024-01-06T01:57:10;13.88;;;7.00;;
76610;SDS011;65503;48.534;9.062;2024-01-06T01:59:38;12.07;;;6.40;;
76610;SDS011;65503;48.534;9.062;2024-01-06T02:02:06;10.57;;;5.22;;
76610;SDS011;65503;48.534;9.062;2024-01-06T02:04:32;8.40;;;4.57;;
76610;SDS011;65503;48.534;9.062;2024-01-06T02:06:59;10.02;;;3.88;;
76610;SDS011;65503;48.534;9.062;2024-01-06T02:09:26;10.27;;;4.22;;
76610;SDS011;65503;48.534;9.062;2024-01-06T02:11:53;7.40;;;3.55;;
76610;SDS011;65503;48.534;9.062;2024-01-06T02:14:19;7.63;;;3.80;;
76610;SDS011;65503;48.534;9.062;2024-01-06T02:16:46;11.77;;;4.25;;
76610;SDS011;65503;48.534;9.062;2024-01-06T02:19:12;9.88;;;3.25;;
76610;SDS011;65503;48.534;9.062;2024-01-06T02:21:41;7.93;;;3.28;;
76610;SDS011;65503;48.534;9.062;2024-01-06T02:24:08;6.95;;;3.28;;
76610;SDS011;65503;48.534;9.062;2024-01-06T02:26:35;6.28;;;3.03;;
76610;SDS011;65503;48.534;9.062;2024-01-06T02:29:02;8.85;;;3.20;;
76610;SDS011;65503;48.534;9.062;2024-01-06T02:31:28;6.90;;;3.45;;
76610;SDS011;65503;48.534;9.062;2024-01-06T02:33:55;7.38;;;3.70;;
76610;SDS011;65503;48.534;9.062;2024-01-06T02:36:21;10.82;;;4.25;;
76610;SDS011;65503;48.534;9.062;2024-01-06T02:38:48;8.98;;;4.10;;
76610;SDS011;65503;48.534;9.062;2024-01-06T02:41:15;9.13;;;5.05;;
76610;SDS011;65503;48.534;9.062;2024-01-06T02:43:41;11.80;;;5.50;;
76610;SDS011;65503;48.534;9.062;2024-01-06T02:46:08;14.00;;;6.18;;
76610;SDS011;65503;48.534;9.062;2024-01-06T02:48:34;11.73;;;6.32;;
76610;SDS011;65503;48.534;9.062;2024-01-06T02:51:01;11.73;;;6.07;;
76610;SDS011;65503;48.534;9.062;2024-01-06T02:53:27;10.40;;;5.68;;
76610;SDS011;65503;48.534;9.062;2024-01-06T02:55:54;12.85;;;6.32;;
76610;SDS011;65503;48.534;9.062;2024-01-06T02:58:20;12.80;;;6.35;;
76610;SDS011;65503;48.534;9.062;2024-01-06T03:00:47;14.35;;;7.07;;
76610;SDS011;65503;48.534;9.062;2024-01-06T03:03:14;12.35;;;6.18;;
76610;SDS011;65503;48.534;9.062;2024-01-06T03:05:40;10.88;;;6.18;;
76610;SDS011;65503;48.534;9.062;2024-01-06T03:08:07;14.02;;;6.13;;
76610;SDS011;65503;48.534;9.062;2024-01-06T03:10:33;11.43;;;5.68;;
76610;SDS011;65503;48.534;9.062;2024-01-06T03:13:00;11.05;;;5.78;;
76610;SDS011;65503;48.534;9.062;2024-01-06T03:15:27;9.68;;;5.50;;
76610;SDS011;65503;48.534;9.062;2024-01-06T03:17:53;8.95;;;4.68;;
76610;SDS011;65503;48.534;9.062;2024-01-06T03:20:20;11.75;;;6.28;;
76610;SDS011;65503;48.534;9.062;2024-01-06T03:22:46;10.40;;;4.95;;
76610;SDS011;65503;48.534;9.062;2024-01-06T03:25:13;10.20;;;3.63;;
76610;SDS011;65503;48.534;9.062;2024-01-06T03:27:39;7.45;;;3.30;;
76610;SDS011;65503;48.534;9.062;2024-01-06T03:30:06;8.20;;;3.17;;
76610;SDS011;65503;48.534;9.062;2024-01-06T03:32:33;7.88;;;3.63;;
76610;SDS011;65503;48.534;9.062;2024-01-06T03:35:00;11.73;;;4.65;;
76610;SDS011;65503;48.534;9.062;2024-01-06T03:37:26;8.77;;;4.60;;
76610;SDS011;65503;48.534;9.062;2024-01-06T03:39:53;12.35;;;5.18;;
76610;SDS011;65503;48.534;9.062;2024-01-06T03:42:19;8.57;;;4.47;;
76610;SDS011;65503;48.534;9.062;2024-01-06T03:44:46;9.50;;;5.32;;
76610;SDS011;65503;48.534;9.062;2024-01-06T03:47:12;9.68;;;5.10;;
76610;SDS011;65503;48.534;9.062;2024-01-06T03:49:39;9.00;;;4.82;;
76610;SDS011;65503;48.534;9.062;2024-01-06T03:52:05;9.85;;;4.53;;
76610;SDS011;65503;48.534;9.062;2024-01-06T03:54:32;9.13;;;3.33;;
76610;SDS011;65503;48.534;9.062;2024-01-06T03:56:58;8.57;;;4.13;;
76610;SDS011;65503;48.534;9.062;2024-01-06T03:59:25;7.45;;;4.10;;
76610;SDS011;65503;48.534;9.062;2024-01-06T04:01:52;8.85;;;4.70;;
76610;SDS011;65503;48.534;9.062;2024-01-06T04:04:18;10.90;;;4.72;;
76610;SDS011;65503;48.534;9.062;2024-01-06T04:06:45;8.48;;;4.63;;
76610;SDS011;65503;48.534;9.062;2024-01-06T04:09:11;9.45;;;5.03;;
76610;SDS011;65503;48.534;9.062;2024-01-06T04:11:40;10.07;;;5.88;;
76610;SDS011;65503;48.534;9.062;2024-01-06T04:14:06;17.30;;;6.97;;
76610;SDS011;65503;48.534;9.062;2024-01-06T04:16:33;11.80;;;6.13;;
76610;SDS011;65503;48.534;9.062;2024-01-06T04:18:59;12.75;;;5.78;;
76610;SDS011;65503;48.534;9.062;2024-01-06T04:21:26;12.23;;;5.88;;
76610;SDS011;65503;48.534;9.062;2024-01-06T04:23:52;9.98;;;5.43;;
76610;SDS011;65503;48.534;9.062;2024-01-06T04:26:19;10.75;;;5.20;;
76610;SDS011;65503;48.534;9.062;2024-01-06T04:28:46;10.75;;;5.70;;
76610;SDS011;65503;48.534;9.062;2024-01-06T04:31:12;10.43;;;5.32;;
76610;SDS011;65503;48.534;9.062;2024-01-06T04:33:39;9.52;;;5.32;;
76610;SDS011;65503;48.534;9.062;2024-01-06T04:36:07;11.05;;;5.50;;
76610;SDS011;65503;48.534;9.062;2024-01-06T04:38:33;10.77;;;5.55;;
76610;SDS011;65503;48.534;9.062;2024-01-06T04:41:00;12.35;;;5.30;;
76610;SDS011;65503;48.534;9.062;2024-01-06T04:43:27;13.45;;;5.97;;
76610;SDS011;65503;48.534;9.062;2024-01-06T04:45:53;14.23;;;6.28;;
76610;SDS011;65503;48.534;9.062;2024-01-06T04:48:20;13.65;;;6.65;;
76610;SDS011;65503;48.534;9.062;2024-01-06T04:50:46;14.77;;;6.95;;
76610;SDS011;65503;48.534;9.062;2024-01-06T04:53:13;13.07;;;7.13;;
76610;SDS011;65503;48.534;9.062;2024-01-06T04:55:39;14.00;;;6.75;;
76610;SDS011;65503;48.534;9.062;2024-01-06T04:58:06;12.52;;;6.18;;
76610;SDS011;65503;48.534;9.062;2024-01-06T05:00:32;13.13;;;6.07;;
76610;SDS011;65503;48.534;9.062;2024-01-06T05:03:02;12.57;;;7.15;;
76610;SDS011;65503;48.534;9.062;2024-01-06T05:05:29;14.15;;;7.20;;
76610;SDS011;65503;48.534;9.062;2024-01-06T05:07:55;14.57;;;6.35;;
76610;SDS011;65503;48.534;9.062;2024-01-06T05:10:22;13.13;;;6.63;;
76610;SDS011;65503;48.534;9.062;2024-01-06T05:12:48;9.98;;;5.53;;
76610;SDS011;65503;48.534;9.062;2024-01-06T05:15:15;14.45;;;6.65;;
76610;SDS011;65503;48.534;9.062;2024-01-06T05:17:42;9.98;;;5.60;;
76610;SDS011;65503;48.534;9.062;2024-01-06T05:20:08;10.45;;;5.97;;
76610;SDS011;65503;48.534;9.062;2024-01-06T05:22:35;9.93;;;5.10;;
76610;SDS011;65503;48.534;9.062;2024-01-06T05:25:02;10.82;;;5.90;;
76610;SDS011;65503;48.534;9.062;2024-01-06T05:27:29;11.13;;;5.72;;
76610;SDS011;65503;48.534;9.062;2024-01-06T05:29:56;9.95;;;5.13;;
76610;SDS011;65503;48.534;9.062;2024-01-06T05:32:22;13.02;;;5.53;;
76610;SDS011;65503;48.534;9.062;2024-01-06T05:34:49;10.82;;;5.55;;
76610;SDS011;65503;48.534;9.062;2024-01-06T05:37:16;10.93;;;5.20;;
76610;SDS011;65503;48.534;9.062;2024-01-06T05:39:42;10.50;;;5.75;;
76610;SDS011;65503;48.534;9.062;2024-01-06T05:42:09;8.32;;;4.75;;
76610;SDS011;65503;48.534;9.062;2024-01-06T05:44:39;9.70;;;5.30;;
76610;SDS011;65503;48.534;9.062;2024-01-06T05:47:05;9.70;;;5.25;;
76610;SDS011;65503;48.534;9.062;2024-01-06T05:49:32;10.20;;;5.85;;
76610;SDS011;65503;48.534;9.062;2024-01-06T05:51:58;10.88;;;5.55;;
76610;SDS011;65503;48.534;9.062;2024-01-06T05:54:25;8.65;;;5.15;;
76610;SDS011;65503;48.534;9.062;2024-01-06T05:56:52;9.95;;;5.55;;
76610;SDS011;65503;48.534;9.062;2024-01-06T05:59:18;10.10;;;5.35;;
76610;SDS011;65503;48.534;9.062;2024-01-06T06:01:45;11.40;;;5.57;;
76610;SDS011;65503;48.534;9.062;2024-01-06T06:04:12;9.25;;;5.03;;
76610;SDS011;65503;48.534;9.062;2024-01-06T06:06:38;9.48;;;4.00;;
76610;SDS011;65503;48.534;9.062;2024-01-06T06:09:05;8.68;;;3.78;;
76610;SDS011;65503;48.534;9.062;2024-01-06T06:11:33;8.02;;;3.78;;
76610;SDS011;65503;48.534;9.062;2024-01-06T06:14:00;6.68;;;3.13;;
76610;SDS011;65503;48.534;9.062;2024-01-06T06:16:28;8.25;;;2.60;;
76610;SDS011;65503;48.534;9.062;2024-01-06T06:18:55;6.75;;;2.67;;
76610;SDS011;65503;48.534;9.062;2024-01-06T06:21:22;8.00;;;2.28;;
76610;SDS011;65503;48.534;9.062;2024-01-06T06:23:49;9.63;;;2.03;;
76610;SDS011;65503;48.534;9.062;2024-01-06T06:26:16;7.60;;;2.42;;
76610;SDS011;65503;48.534;9.062;2024-01-06T06:28:42;3.95;;;2.00;;
76610;SDS011;65503;48.534;9.062;2024-01-06T06:31:09;7.78;;;2.35;;
76610;SDS011;65503;48.534;9.062;2024-01-06T06:33:36;7.95;;;3.10;;
76610;SDS011;65503;48.534;9.062;2024-01-06T06:36:03;5.07;;;2.50;;
76610;SDS011;65503;48.534;9.062;2024-01-06T06:38:29;5.78;;;1.88;;
76610;SDS011;65503;48.534;9.062;2024-01-06T06:40:56;6.85;;;2.38;;
76610;SDS011;65503;48.534;9.062;2024-01-06T06:43:23;5.22;;;2.35;;
76610;SDS011;65503;48.534;9.062;2024-01-06T06:45:49;6.32;;;2.28;;
76610;SDS011;65503;48.534;9.062;2024-01-06T06:48:16;9.05;;;2.42;;
76610;SDS011;65503;48.534;9.062;2024-01-06T06:50:42;8.98;;;2.33;;
76610;SDS011;65503;48.534;9.062;2024-01-06T06:53:09;6.75;;;2.40;;
76610;SDS011;65503;48.534;9.062;2024-01-06T06:55:36;6.28;;;1.90;;
76610;SDS011;65503;48.534;9.062;2024-01-06T06:58:04;5.65;;;1.83;;
76610;SDS011;65503;48.534;9.062;2024-01-06T07:00:31;5.18;;;1.98;;
76610;SDS011;65503;48.534;9.062;2024-01-06T07:02:58;4.70;;;1.63;;
76610;SDS011;65503;48.534;9.062;2024-01-06T07:05:25;4.90;;;1.58;;
76610;SDS011;65503;48.534;9.062;2024-01-06T07:07:52;6.55;;;1.63;;
76610;SDS011;65503;48.534;9.062;2024-01-06T07:10:18;3.67;;;1.63;;
76610;SDS011;65503;48.534;9.062;2024-01-06T07:12:45;7.07;;;1.70;;
76610;SDS011;65503;48.534;9.062;2024-01-06T07:15:11;3.47;;;1.50;;
76610;SDS011;65503;48.534;9.062;2024-01-06T07:17:38;5.60;;;1.70;;
76610;SDS011;65503;48.534;9.062;2024-01-06T07:20:05;4.82;;;2.13;;
76610;SDS011;65503;48.534;9.062;2024-01-06T07:25:01;2.47;;;1.20;;
76610;SDS011;65503;48.534;9.062;2024-01-06T07:27:27;5.43;;;1.55;;
76610;SDS011;65503;48.534;9.062;2024-01-06T07:29:54;6.40;;;1.58;;
76610;SDS011;65503;48.534;9.062;2024-01-06T07:32:22;5.03;;;1.50;;
76610;SDS011;65503;48.534;9.062;2024-01-06T07:34:49;4.78;;;1.38;;
76610;SDS011;65503;48.534;9.062;2024-01-06T07:37:16;4.20;;;1.70;;
76610;SDS011;65503;48.534;9.062;2024-01-06T07:39:42;9.18;;;2.00;;
76610;SDS011;65503;48.534;9.062;2024-01-06T07:42:09;2.95;;;1.52;;
76610;SDS011;65503;48.534;9.062;2024-01-06T07:44:35;6.60;;;1.83;;
76610;SDS011;65503;48.534;9.062;2024-01-06T07:47:02;2.70;;;1.63;;
76610;SDS011;65503;48.534;9.062;2024-01-06T07:49:31;3.97;;;1.50;;
76610;SDS011;65503;48.534;9.062;2024-01-06T07:51:58;4.70;;;1.42;;
76610;SDS011;65503;48.534;9.062;2024-01-06T07:54:25;2.60;;;1.40;;
76610;SDS011;65503;48.534;9.062;2024-01-06T07:56:51;3.47;;;1.63;;
76610;SDS011;65503;48.534;9.062;2024-01-06T07:59:17;4.47;;;2.05;;
76610;SDS011;65503;48.534;9.062;2024-01-06T08:01:44;3.75;;;1.60;;
76610;SDS011;65503;48.534;9.062;2024-01-06T08:04:11;6.97;;;1.90;;
76610;SDS011;65503;48.534;9.062;2024-01-06T08:06:37;4.30;;;2.22;;
76610;SDS011;65503;48.534;9.062;2024-01-06T08:09:04;4.38;;;1.88;;
76610;SDS011;65503;48.534;9.062;2024-01-06T08:11:30;6.88;;;2.33;;
76610;SDS011;65503;48.534;9.062;2024-01-06T08:13:57;4.70;;;2.25;;
76610;SDS011;65503;48.534;9.062;2024-01-06T08:16:23;6.38;;;2.03;;
76610;SDS011;65503;48.534;9.062;2024-01-06T08:18:50;5.47;;;2.10;;
76610;SDS011;65503;48.534;9.062;2024-01-06T08:21:16;6.35;;;2.28;;
76610;SDS011;65503;48.534;9.062;2024-01-06T08:23:43;3.97;;;2.13;;
76610;SDS011;65503;48.534;9.062;2024-01-06T08:26:09;5.45;;;2.25;;
76610;SDS011;65503;48.534;9.062;2024-01-06T08:28:39;6.47;;;2.60;;
76610;SDS011;65503;48.534;9.062;2024-01-06T08:31:05;6.07;;;2.47;;
76610;SDS011;65503;48.534;9.062;2024-01-06T08:33:32;4.75;;;2.58;;
76610;SDS011;65503;48.534;9.062;2024-01-06T08:35:58;5.80;;;2.90;;
76610;SDS011;65503;48.534;9.062;2024-01-06T08:38:25;8.85;;;3.03;;
76610;SDS011;65503;48.534;9.062;2024-01-06T08:40:52;8.23;;;2.95;;
76610;SDS011;65503;48.534;9.062;2024-01-06T08:43:20;4.60;;;2.58;;
76610;SDS011;65503;48.534;9.062;2024-01-06T08:45:46;8.55;;;3.25;;
76610;SDS011;65503;48.534;9.062;2024-01-06T08:48:14;8.48;;;2.58;;
76610;SDS011;65503;48.534;9.062;2024-01-06T08:50:42;6.55;;;2.40;;
76610;SDS011;65503;48.534;9.062;2024-01-06T08:53:08;6.90;;;2.42;;
76610;SDS011;65503;48.534;9.062;2024-01-06T08:55:35;5.97;;;2.78;;
76610;SDS011;65503;48.534;9.062;2024-01-06T08:58:01;5.43;;;2.75;;
76610;SDS011;65503;48.534;9.062;2024-01-06T09:00:28;5.70;;;2.63;;
76610;SDS011;65503;48.534;9.062;2024-01-06T09:02:55;5.93;;;2.20;;
76610;SDS011;65503;48.534;9.062;2024-01-06T09:05:22;6.55;;;2.60;;
76610;SDS011;65503;48.534;9.062;2024-01-06T09:07:49;8.07;;;2.40;;
76610;SDS011;65503;48.534;9.062;2024-01-06T09:10:20;6.20;;;2.33;;
76610;SDS011;65503;48.534;9.062;2024-01-06T09:12:47;4.70;;;1.77;;
76610;SDS011;65503;48.534;9.062;2024-01-06T09:15:14;5.40;;;2.13;;
76610;SDS011;65503;48.534;9.062;2024-01-06T09:17:41;7.38;;;2.03;;
76610;SDS011;65503;48.534;9.062;2024-01-06T09:20:08;7.85;;;2.20;;
76610;SDS011;65503;48.534;9.062;2024-01-06T09:22:34;6.20;;;1.75;;
76610;SDS011;65503;48.534;9.062;2024-01-06T09:25:01;3.30;;;2.05;;
76610;SDS011;65503;48.534;9.062;2024-01-06T09:27:27;4.93;;;1.63;;
76610;SDS011;65503;48.534;9.062;2024-01-06T09:29:54;3.42;;;1.50;;
76610;SDS011;65503;48.534;9.062;2024-01-06T09:32:20;3.78;;;1.67;;
76610;SDS011;65503;48.534;9.062;2024-01-06T09:34:49;5.35;;;2.05;;
76610;SDS011;65503;48.534;9.062;2024-01-06T09:37:15;5.03;;;1.77;;
76610;SDS011;65503;48.534;9.062;2024-01-06T09:39:42;4.70;;;1.70;;
76610;SDS011;65503;48.534;9.062;2024-01-06T09:42:09;5.30;;;1.90;;
76610;SDS011;65503;48.534;9.062;2024-01-06T09:44:36;3.80;;;1.80;;
76610;SDS011;65503;48.534;9.062;2024-01-06T09:47:03;5.20;;;2.22;;
76610;SDS011;65503;48.534;9.062;2024-01-06T09:49:31;5.13;;;1.80;;
76610;SDS011;65503;48.534;9.062;2024-01-06T09:52:00;3.78;;;1.70;;
76610;SDS011;65503;48.534;9.062;2024-01-06T09:54:29;8.35;;;2.15;;
76610;SDS011;65503;48.534;9.062;2024-01-06T09:57:01;4.93;;;2.00;;
76610;SDS011;65503;48.534;9.062;2024-01-06T09:59:29;5.03;;;2.25;;
76610;SDS011;65503;48.534;9.062;2024-01-06T10:02:00;3.92;;;1.95;;
76610;SDS011;65503;48.534;9.062;2024-01-06T10:04:27;5.30;;;2.20;;
76610;SDS011;65503;48.534;9.062;2024-01-06T10:06:54;4.32;;;2.08;;
76610;SDS011;65503;48.534;9.062;2024-01-06T10:09:27;6.05;;;1.83;;
76610;SDS011;65503;48.534;9.062;2024-01-06T10:11:55;5.97;;;1.90;;
76610;SDS011;65503;48.534;9.062;2024-01-06T10:14:23;3.80;;;1.98;;
76610;SDS011;65503;48.534;9.062;2024-01-06T10:16:51;4.97;;;2.00;;
76610;SDS011;65503;48.534;9.062;2024-01-06T10:21:45;4.30;;;1.77;;
76610;SDS011;65503;48.534;9.062;2024-01-06T10:24:12;4.80;;;1.98;;
76610;SDS011;65503;48.534;9.062;2024-01-06T10:26:40;6.43;;;2.25;;
76610;SDS011;65503;48.534;9.062;2024-01-06T10:29:06;9.18;;;2.58;;
76610;SDS011;65503;48.534;9.062;2024-01-06T10:31:33;4.72;;;1.90;;
76610;SDS011;65503;48.534;9.062;2024-01-06T10:34:00;4.35;;;2.00;;
76610;SDS011;65503;48.534;9.062;2024-01-06T10:36:26;4.55;;;1.92;;
76610;SDS011;65503;48.534;9.062;2024-01-06T10:41:21;4.63;;;2.10;;
76610;SDS011;65503;48.534;9.062;2024-01-06T10:43:49;3.90;;;2.00;;
76610;SDS011;65503;48.534;9.062;2024-01-06T10:46:20;6.13;;;2.70;;
76610;SDS011;65503;48.534;9.062;2024-01-06T10:48:49;3.80;;;1.80;;
76610;SDS011;65503;48.534;9.062;2024-01-06T10:51:16;7.82;;;2.00;;
76610;SDS011;65503;48.534;9.062;2024-01-06T10:53:44;4.78;;;2.10;;
76610;SDS011;65503;48.534;9.062;2024-01-06T10:56:10;7.53;;;2.45;;
76610;SDS011;65503;48.534;9.062;2024-01-06T10:58:38;5.00;;;1.77;;
76610;SDS011;65503;48.534;9.062;2024-01-06T11:01:13;3.90;;;1.70;;
76610;SDS011;65503;48.534;9.062;2024-01-06T11:03:44;5.13;;;2.03;;
76610;SDS011;65503;48.534;9.062;2024-01-06T11:06:12;5.05;;;1.77;;
76610;SDS011;65503;48.534;9.062;2024-01-06T11:08:49;4.85;;;1.92;;
76610;SDS011;65503;48.534;9.062;2024-01-06T11:11:21;5.70;;;1.50;;
76610;SDS011;65503;48.534;9.062;2024-01-06T11:13:49;3.65;;;1.70;;
76610;SDS011;65503;48.534;9.062;2024-01-06T11:16:35;4.28;;;2.03;;
76610;SDS011;65503;48.534;9.062;2024-01-06T11:19:03;3.38;;;1.80;;
76610;SDS011;65503;48.534;9.062;2024-01-06T11:22:23;3.65;;;1.90;;
76610;SDS011;65503;48.534;9.062;2024-01-06T11:24:53;3.47;;;1.20;;
76610;SDS011;65503;48.534;9.062;2024-01-06T11:27:25;3.60;;;1.08;;
76610;SDS011;65503;48.534;9.062;2024-01-06T11:29:59;2.80;;;1.20;;
76610;SDS011;65503;48.534;9.062;2024-01-06T11:32:32;4.65;;;1.50;;
76610;SDS011;65503;48.534;9.062;2024-01-06T11:35:06;2.80;;;1.20;;
76610;SDS011;65503;48.534;9.062;2024-01-06T11:40:09;3.00;;;1.50;;
76610;SDS011;65503;48.534;9.062;2024-01-06T11:42:43;3.83;;;1.23;;
76610;SDS011;65503;48.534;9.062;2024-01-06T11:45:12;3.25;;;1.23;;
76610;SDS011;65503;48.534;9.062;2024-01-06T11:47:39;2.45;;;1.10;;
76610;SDS011;65503;48.534;9.062;2024-01-06T11:50:13;3.10;;;1.35;;
76610;SDS011;65503;48.534;9.062;2024-01-06T11:52:41;2.58;;;1.23;;
76610;SDS011;65503;48.534;9.062;2024-01-06T11:55:09;2.20;;;1.13;;
76610;SDS011;65503;48.534;9.062;2024-01-06T11:57:36;4.47;;;1.40;;
76610;SDS011;65503;48.534;9.062;2024-01-06T12:00:03;2.72;;;1.27;;
76610;SDS011;65503;48.534;9.062;2024-01-06T12:02:30;2.80;;;1.15;;
76610;SDS011;65503;48.534;9.062;2024-01-06T12:04:57;2.38;;;1.05;;
76610;SDS011;65503;48.534;9.062;2024-01-06T12:07:23;4.10;;;1.08;;
76610;SDS011;65503;48.534;9.062;2024-01-06T12:09:51;2.92;;;1.23;;
76610;SDS011;65503;48.534;9.062;2024-01-06T12:12:26;2.03;;;1.10;;
76610;SDS011;65503;48.534;9.062;2024-01-06T12:14:52;1.55;;;0.88;;
76610;SDS011;65503;48.534;9.062;2024-01-06T12:17:20;1.05;;;0.95;;
76610;SDS011;65503;48.534;9.062;2024-01-06T12:19:48;3.75;;;0.90;;
76610;SDS011;65503;48.534;9.062;2024-01-06T12:22:15;2.50;;;0.80;;
76610;SDS011;65503;48.534;9.062;2024-01-06T12:24:41;0.95;;;0.80;;
76610;SDS011;65503;48.534;9.062;2024-01-06T12:27:08;2.58;;;0.88;;
76610;SDS011;65503;48.534;9.062;2024-01-06T12:29:40;2.03;;;0.93;;
76610;SDS011;65503;48.534;9.062;2024-01-06T12:34:34;1.92;;;0.90;;
76610;SDS011;65503;48.534;9.062;2024-01-06T12:37:01;1.58;;;0.90;;
76610;SDS011;65503;48.534;9.062;2024-01-06T12:39:29;2.00;;;0.80;;
76610;SDS011;65503;48.534;9.062;2024-01-06T12:41:56;1.92;;;0.90;;
76610;SDS011;65503;48.534;9.062;2024-01-06T12:44:23;2.38;;;1.00;;
76610;SDS011;65503;48.534;9.062;2024-01-06T12:46:49;2.85;;;1.17;;
76610;SDS011;65503;48.534;9.062;2024-01-06T12:49:15;1.88;;;0.85;;
76610;SDS011;65503;48.534;9.062;2024-01-06T12:51:42;1.30;;;0.98;;
76610;SDS011;65503;48.534;9.062;2024-01-06T12:54:09;1.30;;;0.80;;
76610;SDS011;65503;48.534;9.062;2024-01-06T12:56:35;0.98;;;0.70;;
76610;SDS011;65503;48.534;9.062;2024-01-06T12:59:02;1.48;;;0.80;;
76610;SDS011;65503;48.534;9.062;2024-01-06T13:01:29;1.92;;;1.00;;
76610;SDS011;65503;48.534;9.062;2024-01-06T13:03:56;2.63;;;1.00;;
76610;SDS011;65503;48.534;9.062;2024-01-06T13:06:25;1.80;;;1.08;;
76610;SDS011;65503;48.534;9.062;2024-01-06T13:08:52;1.63;;;1.00;;
76610;SDS011;65503;48.534;9.062;2024-01-06T13:11:19;3.30;;;1.30;;
76610;SDS011;65503;48.534;9.062;2024-01-06T13:13:46;1.75;;;0.93;;
76610;SDS011;65503;48.534;9.062;2024-01-06T13:16:12;2.75;;;1.23;;
76610;SDS011;65503;48.534;9.062;2024-01-06T13:18:39;1.85;;;1.05;;
76610;SDS011;65503;48.534;9.062;2024-01-06T13:21:06;2.95;;;1.00;;
76610;SDS011;65503;48.534;9.062;2024-01-06T13:23:33;2.00;;;1.13;;
76610;SDS011;65503;48.534;9.062;2024-01-06T13:25:59;1.50;;;1.10;;
76610;SDS011;65503;48.534;9.062;2024-01-06T13:28:26;2.63;;;1.02;;
76610;SDS011;65503;48.534;9.062;2024-01-06T13:30:52;2.10;;;1.00;;
76610;SDS011;65503;48.534;9.062;2024-01-06T13:33:19;3.00;;;1.15;;
76610;SDS011;65503;48.534;9.062;2024-01-06T13:35:46;1.98;;;1.13;;
76610;SDS011;65503;48.534;9.062;2024-01-06T13:38:13;0.80;;;0.80;;
76610;SDS011;65503;48.534;9.062;2024-01-06T13:40:39;2.17;;;0.80;;
76610;SDS011;65503;48.534;9.062;2024-01-06T13:43:06;3.30;;;1.55;;
76610;SDS011;65503;48.534;9.062;2024-01-06T13:45:35;2.55;;;1.27;;
76610;SDS011;65503;48.534;9.062;2024-01-06T13:48:02;2.08;;;1.13;;
76610;SDS011;65503;48.534;9.062;2024-01-06T13:50:35;1.80;;;0.90;;
76610;SDS011;65503;48.534;9.062;2024-01-06T13:53:01;2.17;;;1.00;;
76610;SDS011;65503;48.534;9.062;2024-01-06T13:55:29;1.98;;;0.98;;
76610;SDS011;65503;48.534;9.062;2024-01-06T13:57:56;2.70;;;1.27;;
76610;SDS011;65503;48.534;9.062;2024-01-06T14:00:22;3.08;;;1.15;;
76610;SDS011;65503;48.534;9.062;2024-01-06T14:02:49;1.60;;;1.00;;
76610;SDS011;65503;48.534;9.062;2024-01-06T14:05:15;5.88;;;1.85;;
76610;SDS011;65503;48.534;9.062;2024-01-06T14:07:42;3.30;;;1.23;;
76610;SDS011;65503;48.534;9.062;2024-01-06T14:10:11;1.80;;;0.98;;
76610;SDS011;65503;48.534;9.062;2024-01-06T14:12:39;2.22;;;1.30;;
76610;SDS011;65503;48.534;9.062;2024-01-06T14:15:07;2.67;;;1.10;;
76610;SDS011;65503;48.534;9.062;2024-01-06T14:17:34;2.85;;;1.10;;
76610;SDS011;65503;48.534;9.062;2024-01-06T14:20:01;2.33;;;1.10;;
76610;SDS011;65503;48.534;9.062;2024-01-06T14:22:31;3.53;;;1.55;;
76610;SDS011;65503;48.534;9.062;2024-01-06T14:24:57;2.75;;;1.50;;
76610;SDS011;65503;48.534;9.062;2024-01-06T14:27:25;1.90;;;1.10;;
76610;SDS011;65503;48.534;9.062;2024-01-06T14:29:52;2.17;;;1.00;;
76610;SDS011;65503;48.534;9.062;2024-01-06T14:32:21;2.67;;;1.35;;
76610;SDS011;65503;48.534;9.062;2024-01-06T14:34:50;3.88;;;1.50;;
76610;SDS011;65503;48.534;9.062;2024-01-06T14:37:17;1.52;;;1.00;;
76610;SDS011;65503;48.534;9.062;2024-01-06T14:39:44;1.88;;;1.30;;
76610;SDS011;65503;48.534;9.062;2024-01-06T14:42:11;2.15;;;1.40;;
76610;SDS011;65503;48.534;9.062;2024-01-06T14:44:38;6.68;;;2.20;;
76610;SDS011;65503;48.534;9.062;2024-01-06T14:47:05;5.50;;;1.70;;
76610;SDS011;65503;48.534;9.062;2024-01-06T14:49:31;4.20;;;1.70;;
76610;SDS011;65503;48.534;9.062;2024-01-06T14:51:58;2.78;;;1.35;;
76610;SDS011;65503;48.534;9.062;2024-01-06T14:54:25;3.50;;;1.60;;
76610;SDS011;65503;48.534;9.062;2024-01-06T14:56:51;4.68;;;2.42;;